createdAt,value
2019-04-30T00:00:18.212Z,98740.78
2019-04-30T00:02:38.373Z,98742.49
2019-04-30T00:04:45.276Z,98739.81
2019-04-30T00:06:56.890Z,98737.30
2019-04-30T00:09:15.118Z,98735.74
2019-04-30T00:11:22.641Z,98729.59
2019-04-30T00:13:35.762Z,98723.89
2019-04-30T00:15:47.872Z,98727.37
2019-04-30T00:18:01.836Z,98718.84
2019-04-30T00:20:15.119Z,98720.05
2019-04-30T00:22:33.494Z,98724.34
2019-04-30T00:24:44.265Z,98724.72
2019-04-30T00:26:52.858Z,98723.94
2019-04-30T00:29:05.132Z,98722.05
2019-04-30T00:31:17.621Z,98732.73
2019-04-30T00:33:28.857Z,98728.06
2019-04-30T00:35:39.808Z,98724.59
2019-04-30T00:37:52.059Z,98733.11
2019-04-30T00:40:05.596Z,98733.44
2019-04-30T00:42:23.911Z,98730.76
2019-04-30T00:44:30.120Z,98731.55
2019-04-30T00:46:41.127Z,98724.36
2019-04-30T00:48:52.044Z,98724.28
2019-04-30T00:51:07.501Z,98721.31
2019-04-30T00:53:16.654Z,98724.28
2019-04-30T00:55:27.648Z,98720.39
2019-04-30T00:57:43.630Z,98719.96
2019-04-30T00:59:51.389Z,98720.02
2019-04-30T01:02:13.195Z,98717.28
2019-04-30T01:04:31.693Z,98715.39
2019-04-30T01:06:42.658Z,98716.50
2019-04-30T01:08:53.525Z,98711.22
2019-04-30T01:11:09.357Z,98712.14
2019-04-30T01:13:19.375Z,98712.78
2019-04-30T01:15:30.314Z,98708.73
2019-04-30T01:17:45.458Z,98703.41
2019-04-30T01:19:54.581Z,98705.99
2019-04-30T01:22:05.725Z,98703.55
2019-04-30T01:24:16.680Z,98708.30
2019-04-30T01:26:31.052Z,98708.67
2019-04-30T01:28:40.796Z,98699.00
2019-04-30T01:30:53.838Z,98700.06
2019-04-30T01:33:05.012Z,98691.97
2019-04-30T01:35:15.934Z,98688.63
2019-04-30T01:37:29.646Z,98685.25
2019-04-30T01:39:40.217Z,98688.77
2019-04-30T01:41:51.182Z,98685.48
2019-04-30T01:44:03.756Z,98686.09
2019-04-30T01:46:15.016Z,98688.39
2019-04-30T01:48:25.940Z,98680.07
2019-04-30T01:50:38.675Z,98680.07
2019-04-30T01:52:52.664Z,98676.13
2019-04-30T01:55:04.179Z,98679.61
2019-04-30T01:57:19.231Z,98680.30
2019-04-30T01:59:31.897Z,98677.42
2019-04-30T02:01:48.728Z,98677.80
2019-04-30T02:03:59.694Z,98686.78
2019-04-30T02:06:11.550Z,98682.00
2019-04-30T02:08:22.741Z,98677.20
2019-04-30T02:10:33.691Z,98677.52
2019-04-30T02:12:44.639Z,98674.37
2019-04-30T02:14:55.700Z,98673.54
2019-04-30T02:17:06.676Z,98678.20
2019-04-30T02:19:18.805Z,98681.55
2019-04-30T02:21:30.914Z,98680.05
2019-04-30T02:23:42.645Z,98681.95
2019-04-30T02:25:58.828Z,98679.50
2019-04-30T02:28:09.726Z,98684.45
2019-04-30T02:30:21.117Z,98686.64
2019-04-30T02:32:32.046Z,98691.17
2019-04-30T02:34:49.775Z,98683.63
2019-04-30T02:37:09.806Z,98684.60
2019-04-30T02:39:20.890Z,98683.25
2019-04-30T02:41:31.947Z,98675.98
2019-04-30T02:43:43.832Z,98680.25
2019-04-30T02:45:55.309Z,98683.85
2019-04-30T02:48:06.505Z,98684.05
2019-04-30T02:50:22.295Z,98678.72
2019-04-30T02:52:32.427Z,98678.34
2019-04-30T02:54:45.208Z,98676.50
2019-04-30T02:56:59.684Z,98682.09
2019-04-30T02:59:12.733Z,98675.53
2019-04-30T03:01:23.563Z,98676.91
2019-04-30T03:03:34.427Z,98676.50
2019-04-30T03:05:45.256Z,98670.48
2019-04-30T03:07:56.106Z,98674.23
2019-04-30T03:10:09.802Z,98671.12
2019-04-30T03:12:20.451Z,98667.28
2019-04-30T03:14:33.367Z,98668.20
2019-04-30T03:16:53.287Z,98663.72
2019-04-30T03:19:24.199Z,98664.17
2019-04-30T03:21:42.660Z,98667.69
2019-04-30T03:23:53.577Z,98660.95
2019-04-30T03:26:04.428Z,98663.02
2019-04-30T03:28:19.933Z,98663.48
2019-04-30T03:30:31.986Z,98666.54
2019-04-30T03:32:43.825Z,98664.17
2019-04-30T03:34:55.797Z,98656.02
2019-04-30T03:37:06.648Z,98657.61
2019-04-30T03:39:19.844Z,98649.68
2019-04-30T03:41:33.469Z,98650.98
2019-04-30T03:43:43.262Z,98647.09
2019-04-30T03:45:54.524Z,98650.14
2019-04-30T03:48:05.526Z,98650.05
2019-04-30T03:50:19.605Z,98653.28
2019-04-30T03:52:29.379Z,98649.02
2019-04-30T03:54:40.987Z,98649.45
2019-04-30T03:56:53.954Z,98650.83
2019-04-30T03:59:04.798Z,98649.02
2019-04-30T04:01:29.900Z,98651.15
2019-04-30T04:04:00.338Z,98648.61
2019-04-30T04:06:16.281Z,98653.34
2019-04-30T04:08:29.455Z,98658.09
2019-04-30T04:10:42.473Z,98658.52
2019-04-30T04:12:55.311Z,98662.27
2019-04-30T04:15:06.543Z,98670.59
2019-04-30T04:17:20.097Z,98664.12
2019-04-30T04:19:30.382Z,98665.01
2019-04-30T04:21:41.289Z,98658.38
2019-04-30T04:23:52.784Z,98663.20
2019-04-30T04:26:03.741Z,98662.04
2019-04-30T04:28:14.714Z,98659.53
2019-04-30T04:30:25.751Z,98662.50
2019-04-30T04:32:36.639Z,98662.59
2019-04-30T04:34:50.054Z,98656.70
2019-04-30T04:37:00.258Z,98662.41
2019-04-30T04:39:11.214Z,98668.16
2019-04-30T04:41:22.090Z,98671.89
2019-04-30T04:43:33.096Z,98674.08
2019-04-30T04:45:44.039Z,98675.33
2019-04-30T04:47:55.086Z,98673.56
2019-04-30T04:50:07.051Z,98678.15
2019-04-30T04:52:20.622Z,98672.88
2019-04-30T04:54:30.761Z,98675.41
2019-04-30T04:56:41.710Z,98677.02
2019-04-30T04:58:52.723Z,98676.01
2019-04-30T05:01:03.670Z,98675.47
2019-04-30T05:03:20.194Z,98674.72
2019-04-30T05:05:31.276Z,98677.38
2019-04-30T05:07:42.379Z,98681.69
2019-04-30T05:09:53.290Z,98685.14
2019-04-30T05:12:04.229Z,98686.04
2019-04-30T05:14:15.092Z,98687.05
2019-04-30T05:16:26.194Z,98685.35
2019-04-30T05:18:38.978Z,98690.69
2019-04-30T05:20:50.013Z,98689.11
2019-04-30T05:23:00.934Z,98692.75
2019-04-30T05:25:11.880Z,98687.09
2019-04-30T05:27:22.725Z,98689.75
2019-04-30T05:29:33.612Z,98693.12
2019-04-30T05:31:44.462Z,98694.56
2019-04-30T05:33:55.334Z,98696.17
2019-04-30T05:36:06.265Z,98698.36
2019-04-30T05:38:18.836Z,98700.59
2019-04-30T05:40:29.900Z,98699.60
2019-04-30T05:42:40.844Z,98700.91
2019-04-30T05:44:51.738Z,98701.65
2019-04-30T05:47:02.820Z,98702.08
2019-04-30T05:49:13.686Z,98703.41
2019-04-30T05:51:24.533Z,98698.05
2019-04-30T05:53:35.427Z,98695.36
2019-04-30T05:55:46.259Z,98697.58
2019-04-30T05:57:58.784Z,98694.90
2019-04-30T06:00:10.602Z,98699.80
2019-04-30T06:02:21.669Z,98696.03
2019-04-30T06:04:32.523Z,98696.75
2019-04-30T06:06:43.383Z,98698.05
2019-04-30T06:09:14.861Z,98697.42
2019-04-30T06:11:39.924Z,98696.81
2019-04-30T06:13:58.921Z,98699.49
2019-04-30T06:16:11.881Z,98699.72
2019-04-30T06:18:23.046Z,98700.92
2019-04-30T06:20:35.835Z,98702.16
2019-04-30T06:22:46.987Z,98699.23
2019-04-30T06:24:59.460Z,98699.94
2019-04-30T06:27:11.006Z,98699.47
2019-04-30T06:29:22.378Z,98700.25
2019-04-30T06:31:37.370Z,98699.47
2019-04-30T06:33:46.599Z,98706.80
2019-04-30T06:35:58.998Z,98701.70
2019-04-30T06:38:10.086Z,98704.42
2019-04-30T06:40:21.040Z,98701.31
2019-04-30T06:42:33.811Z,98709.41
2019-04-30T06:44:44.955Z,98711.54
2019-04-30T06:46:55.945Z,98717.88
2019-04-30T06:49:06.889Z,98716.43
2019-04-30T06:51:18.886Z,98717.73
2019-04-30T06:53:29.934Z,98715.97
2019-04-30T06:55:41.026Z,98717.17
2019-04-30T06:57:51.857Z,98712.75
2019-04-30T07:00:06.525Z,98715.72
2019-04-30T07:02:19.521Z,98725.33
2019-04-30T07:04:30.259Z,98726.35
2019-04-30T07:06:44.116Z,98724.74
2019-04-30T07:09:13.801Z,98722.98
2019-04-30T07:11:29.744Z,98729.01
2019-04-30T07:13:41.400Z,98728.27
2019-04-30T07:15:52.272Z,98737.19
2019-04-30T07:18:03.337Z,98737.42
2019-04-30T07:20:14.210Z,98738.27
2019-04-30T07:22:37.714Z,98738.88
2019-04-30T07:24:39.427Z,98738.88
2019-04-30T07:26:54.754Z,98745.66
2019-04-30T07:29:03.177Z,98748.80
2019-04-30T07:31:14.905Z,98753.30
2019-04-30T07:33:26.030Z,98743.29
2019-04-30T07:35:36.982Z,98750.25
2019-04-30T07:37:49.750Z,98752.06
2019-04-30T07:40:00.798Z,98748.72
2019-04-30T07:42:11.653Z,98750.08
2019-04-30T07:44:35.470Z,98750.91
2019-04-30T07:46:41.165Z,98749.47
2019-04-30T07:48:50.096Z,98748.17
2019-04-30T07:51:00.958Z,98749.94
2019-04-30T07:53:12.714Z,98751.32
2019-04-30T07:55:23.887Z,98754.44
2019-04-30T07:57:34.721Z,98757.86
2019-04-30T07:59:45.591Z,98759.53
2019-04-30T08:02:04.053Z,98757.89
2019-04-30T08:04:18.846Z,98760.63
2019-04-30T08:06:31.000Z,98756.05
2019-04-30T08:08:42.566Z,98754.59
2019-04-30T08:10:53.529Z,98757.50
2019-04-30T08:13:10.231Z,98758.27
2019-04-30T08:15:17.146Z,98760.09
2019-04-30T08:17:28.948Z,98760.09
2019-04-30T08:19:41.209Z,98759.94
2019-04-30T08:21:52.104Z,98765.35
2019-04-30T08:24:03.076Z,98767.20
2019-04-30T08:26:13.911Z,98769.80
2019-04-30T08:28:24.816Z,98771.63
2019-04-30T08:30:35.896Z,98772.62
2019-04-30T08:32:46.759Z,98773.21
2019-04-30T08:35:01.004Z,98771.23
2019-04-30T08:37:17.087Z,98774.66
2019-04-30T08:39:23.321Z,98767.95
2019-04-30T08:41:34.174Z,98773.21
2019-04-30T08:43:45.044Z,98773.16
2019-04-30T08:45:55.894Z,98774.05
2019-04-30T08:48:08.978Z,98772.69
2019-04-30T08:50:20.650Z,98767.50
2019-04-30T08:52:32.150Z,98768.17
2019-04-30T08:54:45.031Z,98766.73
2019-04-30T08:56:55.870Z,98763.66
2019-04-30T08:59:10.873Z,98763.88
2019-04-30T09:01:19.862Z,98773.66
2019-04-30T09:03:30.787Z,98774.12
2019-04-30T09:05:43.759Z,98774.33
2019-04-30T09:07:54.630Z,98778.23
2019-04-30T09:10:09.185Z,98776.88
2019-04-30T09:12:20.237Z,98781.51
2019-04-30T09:14:31.212Z,98783.67
2019-04-30T09:16:42.120Z,98784.30
2019-04-30T09:18:53.103Z,98788.34
2019-04-30T09:21:06.371Z,98786.89
2019-04-30T09:23:18.601Z,98789.02
2019-04-30T09:25:29.482Z,98789.42
2019-04-30T09:27:40.347Z,98795.66
2019-04-30T09:29:51.323Z,98792.16
2019-04-30T09:32:02.270Z,98793.06
2019-04-30T09:34:17.095Z,98792.02
2019-04-30T09:36:25.962Z,98792.15
2019-04-30T09:38:38.817Z,98792.09
2019-04-30T09:40:50.765Z,98796.20
2019-04-30T09:43:01.934Z,98796.48
2019-04-30T09:45:12.923Z,98795.44
2019-04-30T09:47:23.773Z,98788.13
2019-04-30T09:49:34.620Z,98783.40
2019-04-30T09:51:45.511Z,98787.14
2019-04-30T09:53:59.655Z,98785.69
2019-04-30T09:56:09.652Z,98780.18
2019-04-30T09:58:21.255Z,98778.88
2019-04-30T10:00:32.520Z,98776.86
2019-04-30T10:02:43.440Z,98771.88
2019-04-30T10:04:54.706Z,98768.34
2019-04-30T10:07:05.869Z,98773.69
2019-04-30T10:09:19.332Z,98769.73
2019-04-30T10:11:41.143Z,98766.48
2019-04-30T10:13:52.211Z,98764.90
2019-04-30T10:16:09.724Z,98766.27
2019-04-30T10:18:20.623Z,98762.61
2019-04-30T10:20:40.229Z,98754.02
2019-04-30T10:22:51.076Z,98749.58
2019-04-30T10:25:06.744Z,98758.22
2019-04-30T10:27:19.093Z,98756.55
2019-04-30T10:29:30.325Z,98758.69
2019-04-30T10:31:41.302Z,98752.52
2019-04-30T10:33:52.165Z,98749.62
2019-04-30T10:36:03.186Z,98743.82
2019-04-30T10:38:14.061Z,98749.36
2019-04-30T10:40:25.047Z,98745.09
2019-04-30T10:42:36.001Z,98739.38
2019-04-30T10:44:47.128Z,98743.68
2019-04-30T10:46:59.368Z,98739.80
2019-04-30T10:49:10.650Z,98739.28
2019-04-30T10:51:21.600Z,98740.36
2019-04-30T10:53:32.468Z,98748.02
2019-04-30T10:55:43.419Z,98745.51
2019-04-30T10:57:54.276Z,98748.80
2019-04-30T11:00:10.121Z,98741.81
2019-04-30T11:02:21.227Z,98738.36
2019-04-30T11:04:32.177Z,98732.20
2019-04-30T11:06:43.135Z,98726.55
2019-04-30T11:08:54.510Z,98732.10
2019-04-30T11:11:05.563Z,98722.98
2019-04-30T11:13:16.426Z,98725.56
2019-04-30T11:15:29.209Z,98718.27
2019-04-30T11:17:40.564Z,98721.14
2019-04-30T11:19:51.777Z,98719.66
2019-04-30T11:22:04.224Z,98721.34
2019-04-30T11:24:15.629Z,98717.28
2019-04-30T11:26:30.804Z,98718.53
2019-04-30T11:28:39.816Z,98717.42
2019-04-30T11:30:53.198Z,98714.21
2019-04-30T11:33:04.497Z,98717.16
2019-04-30T11:35:15.683Z,98710.20
2019-04-30T11:37:26.664Z,98707.63
2019-04-30T11:39:37.725Z,98707.41
2019-04-30T11:41:48.822Z,98711.38
2019-04-30T11:43:59.769Z,98705.17
2019-04-30T11:46:28.574Z,98700.97
2019-04-30T11:48:39.480Z,98701.72
2019-04-30T11:50:50.420Z,98704.27
2019-04-30T11:53:19.640Z,98707.88
2019-04-30T11:55:14.270Z,98700.28
2019-04-30T11:57:25.116Z,98708.32
2019-04-30T11:59:36.103Z,98698.00
2019-04-30T12:01:48.464Z,98700.55
2019-04-30T12:03:59.880Z,98692.50
2019-04-30T12:06:11.228Z,98694.59
2019-04-30T12:08:27.050Z,98689.90
2019-04-30T12:10:39.885Z,98687.27
2019-04-30T12:12:50.747Z,98687.05
2019-04-30T12:15:02.894Z,98689.41
2019-04-30T12:17:13.968Z,98690.11
2019-04-30T12:19:24.826Z,98685.70
2019-04-30T12:21:35.785Z,98687.90
2019-04-30T12:23:46.631Z,98683.16
2019-04-30T12:26:01.010Z,98679.55
2019-04-30T12:28:10.339Z,98679.06
2019-04-30T12:30:21.610Z,98680.48
2019-04-30T12:32:35.178Z,98671.12
2019-04-30T12:34:45.222Z,98668.94
2019-04-30T12:36:56.206Z,98665.91
2019-04-30T12:39:07.249Z,98665.91
2019-04-30T12:41:18.247Z,98660.63
2019-04-30T12:43:29.660Z,98666.52
2019-04-30T12:45:40.512Z,98667.74
2019-04-30T12:47:59.453Z,98672.88
2019-04-30T12:50:15.462Z,98670.38
2019-04-30T12:52:29.615Z,98669.36
2019-04-30T12:54:42.411Z,98670.30
2019-04-30T12:57:01.230Z,98665.15
2019-04-30T12:59:12.094Z,98661.29
2019-04-30T13:01:23.079Z,98654.45
2019-04-30T13:03:33.932Z,98652.34
2019-04-30T13:05:45.190Z,98655.92
2019-04-30T13:07:57.472Z,98655.45
2019-04-30T13:10:10.143Z,98650.69
2019-04-30T13:12:21.944Z,98649.95
2019-04-30T13:14:36.855Z,98642.06
2019-04-30T13:16:46.392Z,98639.09
2019-04-30T13:18:59.287Z,98639.34
2019-04-30T13:21:10.226Z,98644.27
2019-04-30T13:23:21.106Z,98644.89
2019-04-30T13:25:35.468Z,98641.70
2019-04-30T13:27:46.664Z,98640.18
2019-04-30T13:30:05.470Z,98636.11
2019-04-30T13:32:29.565Z,98640.04
2019-04-30T13:34:44.954Z,98636.71
2019-04-30T13:36:55.810Z,98636.11
2019-04-30T13:39:11.305Z,98635.50
2019-04-30T13:41:44.531Z,98630.03
2019-04-30T13:43:58.735Z,98626.36
2019-04-30T13:46:09.722Z,98624.59
2019-04-30T13:48:20.622Z,98623.05
2019-04-30T13:50:31.530Z,98619.44
2019-04-30T13:52:42.523Z,98612.94
2019-04-30T13:54:55.249Z,98620.30
2019-04-30T13:57:06.106Z,98613.52
2019-04-30T13:59:17.005Z,98613.40
2019-04-30T14:01:29.386Z,98612.20
2019-04-30T14:03:51.566Z,98613.86
2019-04-30T14:06:03.500Z,98616.02
2019-04-30T14:08:20.015Z,98611.38
2019-04-30T14:10:32.911Z,98606.23
2019-04-30T14:12:45.770Z,98606.59
2019-04-30T14:14:56.647Z,98608.99
2019-04-30T14:17:09.200Z,98609.69
2019-04-30T14:19:20.381Z,98604.56
2019-04-30T14:21:35.271Z,98610.07
2019-04-30T14:23:44.300Z,98607.80
2019-04-30T14:25:56.548Z,98611.72
2019-04-30T14:28:09.442Z,98605.30
2019-04-30T14:30:20.916Z,98603.75
2019-04-30T14:32:31.779Z,98598.62
2019-04-30T14:34:42.739Z,98602.66
2019-04-30T14:36:53.673Z,98606.25
2019-04-30T14:39:14.419Z,98605.07
2019-04-30T14:41:19.767Z,98600.66
2019-04-30T14:43:45.360Z,98604.22
2019-04-30T14:46:05.007Z,98597.80
2019-04-30T14:48:20.845Z,98605.07
2019-04-30T14:50:32.562Z,98605.28
2019-04-30T14:52:48.321Z,98605.13
2019-04-30T14:55:04.105Z,98606.55
2019-04-30T14:57:33.425Z,98603.45
2019-04-30T15:00:03.344Z,98603.56
2019-04-30T15:02:29.619Z,98597.16
2019-04-30T15:04:40.681Z,98599.65
2019-04-30T15:06:51.539Z,98600.72
2019-04-30T15:09:05.362Z,98597.38
2019-04-30T15:11:16.337Z,98593.46
2019-04-30T15:13:29.407Z,98592.38
2019-04-30T15:15:40.153Z,98595.72
2019-04-30T15:17:52.968Z,98594.17
2019-04-30T15:20:04.811Z,98590.47
2019-04-30T15:22:15.837Z,98588.33
2019-04-30T15:24:29.358Z,98589.50
2019-04-30T15:26:41.313Z,98583.56
2019-04-30T15:28:52.241Z,98582.70
2019-04-30T15:31:03.356Z,98584.73
2019-04-30T15:33:19.096Z,98581.75
2019-04-30T15:35:30.073Z,98575.56
2019-04-30T15:37:42.970Z,98576.52
2019-04-30T15:39:53.809Z,98579.75
2019-04-30T15:42:04.898Z,98581.06
2019-04-30T15:44:15.993Z,98577.23
2019-04-30T15:46:27.059Z,98586.73
2019-04-30T15:48:37.901Z,98582.79
2019-04-30T15:50:49.341Z,98584.06
2019-04-30T15:53:02.229Z,98579.53
2019-04-30T15:55:13.216Z,98580.23
2019-04-30T15:57:24.230Z,98584.26
2019-04-30T15:59:39.771Z,98586.75
2019-04-30T16:01:52.546Z,98580.81
2019-04-30T16:04:03.819Z,98583.52
2019-04-30T16:06:14.714Z,98587.13
2019-04-30T16:08:29.086Z,98584.52
2019-04-30T16:10:50.992Z,98581.77
2019-04-30T16:13:19.531Z,98584.39
2019-04-30T16:15:30.800Z,98582.25
2019-04-30T16:17:43.592Z,98582.38
2019-04-30T16:19:54.452Z,98585.92
2019-04-30T16:22:05.562Z,98580.36
2019-04-30T16:24:18.644Z,98576.05
2019-04-30T16:26:29.392Z,98575.67
2019-04-30T16:28:40.275Z,98575.32
2019-04-30T16:30:51.318Z,98576.72
2019-04-30T16:33:02.411Z,98571.30
2019-04-30T16:35:13.339Z,98573.21
2019-04-30T16:37:24.268Z,98572.26
2019-04-30T16:39:35.185Z,98571.65
2019-04-30T16:41:46.146Z,98574.17
2019-04-30T16:43:57.021Z,98574.88
2019-04-30T16:46:07.998Z,98570.95
2019-04-30T16:48:19.437Z,98574.05
2019-04-30T16:50:30.635Z,98569.89
2019-04-30T16:52:41.497Z,98566.89
2019-04-30T16:54:56.330Z,98567.50
2019-04-30T16:57:07.298Z,98563.54
2019-04-30T16:59:20.063Z,98566.28
2019-04-30T17:01:32.348Z,98568.42
2019-04-30T17:03:45.238Z,98563.06
2019-04-30T17:05:59.639Z,98562.81
2019-04-30T17:08:21.548Z,98560.16
2019-04-30T17:10:50.931Z,98559.52
2019-04-30T17:13:03.691Z,98561.30
2019-04-30T17:15:22.430Z,98557.95
2019-04-30T17:17:33.262Z,98551.27
2019-04-30T17:19:44.299Z,98551.49
2019-04-30T17:21:55.312Z,98551.45
2019-04-30T17:24:06.293Z,98554.77
2019-04-30T17:26:17.187Z,98555.72
2019-04-30T17:28:28.569Z,98552.22
2019-04-30T17:30:39.532Z,98556.48
2019-04-30T17:32:50.478Z,98549.34
2019-04-30T17:35:01.536Z,98549.95
2019-04-30T17:37:12.494Z,98544.55
2019-04-30T17:39:23.839Z,98544.54
2019-04-30T17:41:34.823Z,98540.95
2019-04-30T17:43:45.704Z,98539.48
2019-04-30T17:45:56.701Z,98531.15
2019-04-30T17:48:07.664Z,98542.17
2019-04-30T17:50:18.882Z,98539.41
2019-04-30T17:52:29.911Z,98540.94
2019-04-30T17:54:41.112Z,98534.38
2019-04-30T17:56:51.962Z,98536.86
2019-04-30T17:59:03.014Z,98540.16
2019-04-30T18:01:14.204Z,98545.95
2019-04-30T18:03:25.417Z,98546.16
2019-04-30T18:05:36.518Z,98546.02
2019-04-30T18:07:49.629Z,98553.15
2019-04-30T18:10:00.312Z,98556.89
2019-04-30T18:12:11.205Z,98556.59
2019-04-30T18:14:22.092Z,98561.75
2019-04-30T18:16:35.062Z,98563.21
2019-04-30T18:18:51.204Z,98572.95
2019-04-30T18:21:16.174Z,98575.72
2019-04-30T18:23:31.783Z,98573.57
2019-04-30T18:25:44.631Z,98570.08
2019-04-30T18:28:00.545Z,98569.55
2019-04-30T18:30:13.492Z,98573.11
2019-04-30T18:32:26.014Z,98567.47
2019-04-30T18:34:38.714Z,98573.17
2019-04-30T18:36:51.194Z,98581.48
2019-04-30T18:39:05.090Z,98580.18
2019-04-30T18:41:19.359Z,98579.06
2019-04-30T18:43:30.330Z,98580.48
2019-04-30T18:45:41.401Z,98586.34
2019-04-30T18:47:52.473Z,98579.07
2019-04-30T18:50:04.935Z,98580.01
2019-04-30T18:52:15.755Z,98586.95
2019-04-30T18:54:28.604Z,98584.34
2019-04-30T18:56:39.433Z,98586.58
2019-04-30T18:58:50.703Z,98589.75
2019-04-30T19:01:01.756Z,98599.75
2019-04-30T19:03:12.798Z,98595.13
2019-04-30T19:05:25.928Z,98594.75
2019-04-30T19:07:38.884Z,98597.98
2019-04-30T19:09:54.629Z,98599.73
2019-04-30T19:12:23.934Z,98592.67
2019-04-30T19:14:45.645Z,98594.33
2019-04-30T19:17:04.224Z,98596.08
2019-04-30T19:19:17.029Z,98597.32
2019-04-30T19:21:28.220Z,98603.88
2019-04-30T19:23:39.207Z,98610.58
2019-04-30T19:25:50.170Z,98611.74
2019-04-30T19:28:11.321Z,98609.55
2019-04-30T19:30:14.392Z,98608.50
2019-04-30T19:32:25.255Z,98615.05
2019-04-30T19:34:36.309Z,98616.98
2019-04-30T19:36:49.131Z,98617.67
2019-04-30T19:39:00.144Z,98617.42
2019-04-30T19:41:11.212Z,98619.66
2019-04-30T19:43:22.487Z,98625.83
2019-04-30T19:45:34.794Z,98628.47
2019-04-30T19:47:45.951Z,98626.67
2019-04-30T19:49:57.214Z,98628.80
2019-04-30T19:52:11.829Z,98629.28
2019-04-30T19:54:23.300Z,98631.77
2019-04-30T19:56:34.455Z,98635.34
2019-04-30T19:58:57.205Z,98632.15
2019-04-30T20:00:59.518Z,98630.94
2019-04-30T20:03:11.807Z,98635.27
2019-04-30T20:05:22.793Z,98631.46
2019-04-30T20:07:33.735Z,98634.43
2019-04-30T20:09:57.264Z,98627.26
2019-04-30T20:11:59.609Z,98632.84
2019-04-30T20:14:10.467Z,98636.20
2019-04-30T20:16:21.753Z,98632.36
2019-04-30T20:18:32.686Z,98635.89
2019-04-30T20:20:45.577Z,98631.45
2019-04-30T20:22:56.480Z,98636.17
2019-04-30T20:25:09.153Z,98632.97
2019-04-30T20:27:20.261Z,98633.38
2019-04-30T20:29:31.129Z,98630.16
2019-04-30T20:31:42.015Z,98635.42
2019-04-30T20:33:53.770Z,98633.12
2019-04-30T20:36:04.948Z,98636.23
2019-04-30T20:38:19.449Z,98638.45
2019-04-30T20:40:43.055Z,98639.43
2019-04-30T20:42:45.106Z,98636.55
2019-04-30T20:44:56.103Z,98630.13
2019-04-30T20:47:08.838Z,98629.84
2019-04-30T20:49:20.053Z,98634.70
2019-04-30T20:51:31.044Z,98630.04
2019-04-30T20:53:41.925Z,98632.25
2019-04-30T20:55:52.795Z,98630.88
2019-04-30T20:58:03.876Z,98624.48
2019-04-30T21:00:14.853Z,98627.59
2019-04-30T21:02:25.741Z,98624.16
2019-04-30T21:04:36.585Z,98625.96
2019-04-30T21:06:49.516Z,98621.37
2019-04-30T21:09:00.468Z,98621.37
2019-04-30T21:11:11.426Z,98618.98
2019-04-30T21:13:22.406Z,98621.57
2019-04-30T21:15:33.381Z,98616.62
2019-04-30T21:17:44.359Z,98616.56
2019-04-30T21:20:01.048Z,98614.25
2019-04-30T21:22:12.079Z,98616.00
2019-04-30T21:24:22.954Z,98613.33
2019-04-30T21:26:33.934Z,98613.19
2019-04-30T21:28:44.939Z,98616.94
2019-04-30T21:30:55.791Z,98615.09
2019-04-30T21:33:14.808Z,98617.03
2019-04-30T21:35:27.786Z,98613.52
2019-04-30T21:37:38.668Z,98617.17
2019-04-30T21:39:50.155Z,98621.66
2019-04-30T21:42:01.311Z,98620.87
2019-04-30T21:44:12.682Z,98623.41
2019-04-30T21:46:23.541Z,98618.69
2019-04-30T21:48:35.351Z,98618.98
2019-04-30T21:50:46.214Z,98620.22
2019-04-30T21:52:57.064Z,98613.80
2019-04-30T21:55:09.701Z,98622.87
2019-04-30T21:57:20.824Z,98622.49
2019-04-30T21:59:31.893Z,98619.53
2019-04-30T22:01:44.966Z,98621.23
2019-04-30T22:03:55.841Z,98626.42
2019-04-30T22:06:08.495Z,98627.58
2019-04-30T22:08:19.776Z,98625.44
2019-04-30T22:10:30.737Z,98624.83
2019-04-30T22:12:41.594Z,98621.00
2019-04-30T22:14:54.492Z,98625.10
2019-04-30T22:17:05.557Z,98627.27
2019-04-30T22:19:16.538Z,98628.31
2019-04-30T22:21:28.336Z,98627.42
2019-04-30T22:23:40.332Z,98630.77
2019-04-30T22:25:53.222Z,98627.18
2019-04-30T22:28:04.258Z,98627.98
2019-04-30T22:30:15.669Z,98630.33
2019-04-30T22:32:26.563Z,98629.63
2019-04-30T22:34:37.545Z,98629.84
2019-04-30T22:36:48.995Z,98629.97
2019-04-30T22:39:19.934Z,98629.97
2019-04-30T22:41:32.951Z,98634.36
2019-04-30T22:43:43.812Z,98636.87
2019-04-30T22:45:59.656Z,98637.71
2019-04-30T22:48:10.638Z,98637.78
2019-04-30T22:50:22.735Z,98636.41
2019-04-30T22:52:33.595Z,98637.33
2019-04-30T22:54:44.522Z,98632.20
2019-04-30T22:56:55.348Z,98631.83
2019-04-30T22:59:06.401Z,98628.41
2019-04-30T23:01:35.798Z,98624.39
2019-04-30T23:03:47.081Z,98624.52
2019-04-30T23:05:58.056Z,98625.91
2019-04-30T23:08:09.021Z,98626.43
2019-04-30T23:10:20.023Z,98632.03
2019-04-30T23:12:31.189Z,98629.49
2019-04-30T23:14:42.125Z,98623.91
2019-04-30T23:16:55.814Z,98628.36
2019-04-30T23:19:06.674Z,98628.94
2019-04-30T23:21:17.707Z,98620.45
2019-04-30T23:23:28.638Z,98624.25
2019-04-30T23:25:39.539Z,98617.34
2019-04-30T23:27:50.409Z,98618.11
2019-04-30T23:30:03.614Z,98615.91
2019-04-30T23:32:14.115Z,98606.55
2019-04-30T23:34:25.057Z,98607.89
2019-04-30T23:36:35.919Z,98603.30
2019-04-30T23:38:46.844Z,98610.59
2019-04-30T23:40:57.678Z,98602.27
2019-04-30T23:43:08.546Z,98604.28
2019-04-30T23:45:19.621Z,98599.19
2019-04-30T23:47:30.468Z,98601.20
2019-04-30T23:49:41.298Z,98597.32
2019-04-30T23:51:52.221Z,98598.02
2019-04-30T23:54:03.343Z,98589.52
2019-04-30T23:56:14.201Z,98593.58
2019-04-30T23:58:25.047Z,98588.19
